Time;durP1;ratioP1;P1;durP2;ratioP2;P2;SDS_P1;SDS_P2;PMS_P1;PMS_P2;Temp;Humidity;BMP_temperature;BMP_pressure;BME280_temperature;BME280_humidity;BME280_pressure;Samples;Min_cycle;Max_cycle;Signal;HPM_P1;HPM_P2
2022/02/17 00:00:51;;;;;;;11.38;0.63;;;12.00;99.90;;;;;;6146367;23;20009;-81
2022/02/17 00:03:17;;;;;;;7.60;0.60;;;12.20;99.90;;;;;;6122336;23;20152;-89
2022/02/17 00:05:43;;;;;;;7.60;0.57;;;12.00;99.90;;;;;;6122199;23;20012;-84
2022/02/17 00:08:09;;;;;;;13.15;0.70;;;12.00;99.90;;;;;;6123376;23;20036;-84
2022/02/17 00:10:35;;;;;;;11.85;0.70;;;12.00;99.90;;;;;;6147041;23;20024;-83
2022/02/17 00:13:01;;;;;;;10.52;1.15;;;11.90;99.90;;;;;;6146682;23;20368;-85
2022/02/17 00:15:30;;;;;;;9.20;0.90;;;12.00;99.90;;;;;;6122275;23;20312;-84
2022/02/17 00:17:57;;;;;;;12.85;1.27;;;12.00;99.90;;;;;;6122113;23;20092;-82
2022/02/17 00:20:23;;;;;;;12.43;1.45;;;12.00;99.90;;;;;;6122914;23;20013;-83
2022/02/17 00:22:48;;;;;;;7.78;0.82;;;12.00;99.90;;;;;;6121993;23;20045;-80
2022/02/17 00:25:14;;;;;;;11.10;1.05;;;12.10;99.90;;;;;;6096892;23;20020;-84
2022/02/17 00:27:43;;;;;;;9.13;0.63;;;12.00;99.90;;;;;;6097334;23;20024;-86
2022/02/17 00:30:09;;;;;;;8.85;0.60;;;12.00;99.90;;;;;;6097905;23;20012;-82
2022/02/17 00:32:36;;;;;;;6.68;0.75;;;12.00;99.90;;;;;;6097500;23;20103;-83
2022/02/17 00:35:06;;;;;;;9.75;0.65;;;11.90;99.90;;;;;;6097676;23;20064;-84
2022/02/17 00:37:32;;;;;;;10.87;0.50;;;12.00;99.90;;;;;;6097553;23;20021;-83
2022/02/17 00:39:59;;;;;;;9.02;0.88;;;12.00;99.90;;;;;;6121782;23;20006;-82
2022/02/17 00:42:26;;;;;;;12.60;0.70;;;11.90;99.90;;;;;;6122320;23;20009;-80
2022/02/17 00:44:52;;;;;;;11.18;0.60;;;11.90;99.90;;;;;;6121710;23;20010;-81
2022/02/17 00:47:19;;;;;;;5.05;0.50;;;11.80;99.90;;;;;;6097181;23;20817;-83
2022/02/17 00:49:45;;;;;;;11.55;0.60;;;12.00;99.90;;;;;;6097037;23;20064;-84
2022/02/17 00:52:12;;;;;;;7.80;0.63;;;11.90;99.90;;;;;;6097725;23;20124;-81
2022/02/17 00:54:38;;;;;;;8.80;0.95;;;11.70;99.90;;;;;;6096562;23;20592;-82
2022/02/17 00:57:03;;;;;;;5.55;0.68;;;11.70;99.90;;;;;;6096952;23;20013;-81
2022/02/17 00:59:29;;;;;;;6.05;0.50;;;11.60;99.90;;;;;;6096535;23;20013;-80
2022/02/17 01:01:56;;;;;;;5.65;0.47;;;11.60;99.90;;;;;;6097130;23;20022;-80
2022/02/17 01:04:23;;;;;;;11.68;0.70;;;11.60;99.90;;;;;;6097552;23;20010;-84
2022/02/17 01:06:49;;;;;;;10.50;0.70;;;11.50;99.90;;;;;;6097324;23;20021;-83
2022/02/17 01:09:15;;;;;;;10.10;0.93;;;11.50;99.90;;;;;;6097771;23;20089;-79
2022/02/17 01:11:42;;;;;;;12.15;0.90;;;11.50;99.90;;;;;;6096116;23;20073;-81
2022/02/17 01:14:09;;;;;;;9.82;0.77;;;11.60;99.90;;;;;;6121285;23;20012;-80
2022/02/17 01:16:35;;;;;;;10.93;1.30;;;11.50;99.90;;;;;;6121676;23;20045;-83
2022/02/17 01:19:10;;;;;;;14.15;1.08;;;11.50;99.90;;;;;;6099229;23;20443;-82
2022/02/17 01:21:39;;;;;;;10.33;1.07;;;11.50;99.90;;;;;;6097241;23;20020;-83
2022/02/17 01:24:05;;;;;;;12.70;1.23;;;11.20;99.90;;;;;;6111718;23;20761;-85
2022/02/17 01:26:31;;;;;;;5.90;0.47;;;11.00;99.90;;;;;;6145391;23;20087;-81
2022/02/17 01:29:02;;;;;;;4.60;0.40;;;10.20;99.90;;;;;;6121968;23;20016;-82
2022/02/17 01:31:32;;;;;;;3.95;0.30;;;9.80;99.90;;;;;;6121969;23;20053;-80
2022/02/17 01:34:04;;;;;;;2.22;0.30;;;9.30;99.90;;;;;;6145002;23;20442;-78
2022/02/17 01:36:30;;;;;;;6.18;0.30;;;9.30;99.90;;;;;;6120749;23;20072;-77
2022/02/17 01:38:56;;;;;;;11.85;0.43;;;9.50;99.90;;;;;;6120421;23;20017;-77
2022/02/17 01:41:23;;;;;;;7.40;0.40;;;9.50;99.90;;;;;;6121069;23;20104;-78
2022/02/17 01:43:50;;;;;;;8.30;0.50;;;9.60;99.90;;;;;;6144684;23;20017;-77
2022/02/17 01:46:16;;;;;;;7.28;0.68;;;9.80;99.90;;;;;;6145548;23;20388;-77
2022/02/17 01:48:42;;;;;;;10.05;0.88;;;9.80;99.90;;;;;;6145206;23;20033;-77
2022/02/17 01:51:08;;;;;;;11.48;0.68;;;9.90;99.90;;;;;;6097208;23;20436;-77
2022/02/17 01:53:33;;;;;;;11.10;0.80;;;10.00;99.90;;;;;;6121704;23;20379;-77
2022/02/17 01:56:01;;;;;;;9.60;0.63;;;9.90;99.90;;;;;;6147086;23;20411;-77
2022/02/17 01:58:28;;;;;;;13.38;0.60;;;10.00;99.90;;;;;;6147279;23;20104;-77
2022/02/17 02:00:56;;;;;;;17.20;0.95;;;10.10;99.90;;;;;;6123532;23;20446;-76
2022/02/17 02:03:26;;;;;;;16.92;1.40;;;10.10;99.90;;;;;;6123736;23;20009;-77
2022/02/17 02:05:58;;;;;;;20.25;1.65;;;10.20;99.90;;;;;;6124336;23;20013;-76
2022/02/17 02:08:27;;;;;;;14.52;0.85;;;10.30;99.90;;;;;;6146849;23;20013;-77
2022/02/17 02:10:53;;;;;;;21.42;1.55;;;10.60;99.90;;;;;;6146586;23;20043;-77
2022/02/17 02:13:19;;;;;;;16.45;2.05;;;10.60;99.90;;;;;;6122775;23;20110;-77
2022/02/17 02:16:03;;;;;;;17.45;1.75;;;10.70;99.90;;;;;;6148744;23;20020;-77
2022/02/17 02:18:28;;;;;;;22.55;1.45;;;10.70;99.90;;;;;;6121996;23;20033;-76
2022/02/17 02:20:56;;;;;;;19.35;2.25;;;10.70;99.90;;;;;;6122773;23;20316;-77
2022/02/17 02:23:38;;;;;;;16.55;1.40;;;10.80;99.90;;;;;;6145968;23;20024;-77
2022/02/17 02:26:05;;;;;;;19.05;1.95;;;10.80;99.90;;;;;;6123255;23;20390;-77
2022/02/17 02:28:33;;;;;;;23.20;1.88;;;10.80;99.90;;;;;;6122516;23;20040;-76
2022/02/17 02:31:01;;;;;;;15.73;2.63;;;10.90;99.90;;;;;;6122944;23;20021;-76
2022/02/17 02:33:27;;;;;;;20.88;1.80;;;10.80;99.90;;;;;;6146875;23;20020;-77
2022/02/17 02:35:55;;;;;;;18.75;1.60;;;10.80;99.90;;;;;;6122440;23;20009;-76
2022/02/17 02:38:23;;;;;;;16.88;1.83;;;10.80;99.90;;;;;;6122022;23;20420;-76
2022/02/17 02:40:49;;;;;;;25.58;2.05;;;10.70;99.90;;;;;;6121791;23;20090;-76
2022/02/17 02:43:34;;;;;;;23.92;1.85;;;10.80;99.90;;;;;;6126391;23;20307;-76
2022/02/17 02:46:00;;;;;;;16.73;1.65;;;10.80;99.90;;;;;;6122800;23;20465;-76
2022/02/17 02:48:27;;;;;;;20.80;1.70;;;10.70;99.90;;;;;;6146992;23;20469;-75
2022/02/17 02:50:54;;;;;;;20.38;1.65;;;10.70;99.90;;;;;;6122120;23;20097;-77
2022/02/17 02:53:19;;;;;;;15.93;1.35;;;10.70;99.90;;;;;;6121532;23;20026;-76
2022/02/17 02:55:47;;;;;;;17.67;1.65;;;10.60;99.90;;;;;;6121976;23;20010;-75
2022/02/17 02:58:17;;;;;;;17.35;1.75;;;10.60;99.90;;;;;;6146477;23;20100;-75
2022/02/17 03:00:45;;;;;;;21.17;2.33;;;10.60;99.90;;;;;;6121757;23;20351;-76
2022/02/17 03:03:11;;;;;;;20.35;1.77;;;10.50;99.90;;;;;;6146404;23;20014;-75
2022/02/17 03:05:36;;;;;;;20.70;2.38;;;10.50;99.90;;;;;;6146226;23;20020;-77
2022/02/17 03:08:05;;;;;;;21.83;2.72;;;10.50;99.90;;;;;;6147411;23;20445;-76
2022/02/17 03:10:31;;;;;;;22.77;1.60;;;10.50;99.90;;;;;;6122081;23;20017;-76
2022/02/17 03:12:58;;;;;;;21.70;2.00;;;10.40;99.90;;;;;;6121697;23;20016;-77
2022/02/17 03:15:27;;;;;;;22.90;1.85;;;10.50;99.90;;;;;;6122169;23;20088;-78
2022/02/17 03:17:53;;;;;;;24.42;2.50;;;10.40;99.90;;;;;;6122609;23;20021;-76
2022/02/17 03:20:22;;;;;;;21.00;2.28;;;10.40;99.90;;;;;;6121838;23;20092;-76
2022/02/17 03:22:48;;;;;;;20.75;2.20;;;10.40;99.90;;;;;;6120694;23;20892;-76
2022/02/17 03:25:15;;;;;;;19.77;2.42;;;10.40;99.90;;;;;;6098021;23;20017;-77
2022/02/17 03:27:42;;;;;;;20.15;1.60;;;10.30;99.90;;;;;;6121596;23;20442;-76
2022/02/17 03:30:35;;;;;;;18.65;1.65;;;10.30;99.90;;;;;;6147769;23;20117;-77
2022/02/17 03:33:11;;;;;;;17.67;1.67;;;10.30;99.90;;;;;;6099972;23;20017;-75
2022/02/17 03:35:38;;;;;;;14.02;1.27;;;10.30;99.90;;;;;;6093442;23;20469;-76
2022/02/17 03:38:03;;;;;;;18.85;1.17;;;10.20;99.90;;;;;;6097467;23;20009;-78
2022/02/17 03:40:33;;;;;;;15.43;1.30;;;10.10;99.90;;;;;;6122494;23;20406;-76
2022/02/17 03:43:03;;;;;;;17.48;1.65;;;10.20;99.90;;;;;;6121619;23;20009;-76
2022/02/17 03:45:32;;;;;;;16.00;1.15;;;10.20;99.90;;;;;;6121923;23;20508;-76
2022/02/17 03:48:06;;;;;;;14.80;1.20;;;10.10;99.90;;;;;;6098249;23;20410;-76
2022/02/17 03:50:33;;;;;;;12.77;0.88;;;10.00;99.90;;;;;;6096426;23;20009;-77
2022/02/17 03:53:09;;;;;;;9.07;0.98;;;10.10;99.90;;;;;;6098989;23;20076;-76
2022/02/17 03:55:41;;;;;;;15.00;0.70;;;10.00;99.90;;;;;;6098083;23;20044;-78
2022/02/17 03:58:09;;;;;;;13.73;0.80;;;10.00;99.90;;;;;;6097297;23;20079;-78
2022/02/17 04:00:50;;;;;;;15.68;1.55;;;9.90;99.90;;;;;;6099439;23;20394;-82
2022/02/17 04:03:16;;;;;;;12.05;1.02;;;9.90;99.90;;;;;;6096489;23;20191;-78
2022/02/17 04:05:42;;;;;;;11.15;0.75;;;9.80;99.90;;;;;;6121274;23;20017;-80
2022/02/17 04:08:08;;;;;;;11.38;0.77;;;9.70;99.90;;;;;;6121651;23;20434;-82
2022/02/17 04:10:34;;;;;;;13.70;0.95;;;9.70;99.90;;;;;;6096950;23;20060;-78
2022/02/17 04:13:03;;;;;;;16.00;2.30;;;9.80;99.90;;;;;;6098157;23;20064;-81
2022/02/17 04:15:38;;;;;;;15.40;1.90;;;9.80;99.90;;;;;;6121042;23;20044;-78
2022/02/17 04:18:04;;;;;;;12.35;1.30;;;9.90;99.90;;;;;;6097081;23;20021;-78
2022/02/17 04:20:38;;;;;;;20.55;1.40;;;9.60;99.90;;;;;;6098003;23;20006;-80
2022/02/17 04:23:09;;;;;;;14.13;1.00;;;9.70;99.90;;;;;;6097783;23;20435;-78
2022/02/17 04:25:37;;;;;;;17.95;2.05;;;9.70;99.90;;;;;;6121695;23;20037;-82
2022/02/17 04:28:09;;;;;;;18.75;1.27;;;9.70;99.90;;;;;;6122529;23;20002;-78
2022/02/17 04:30:35;;;;;;;15.98;1.75;;;9.80;99.90;;;;;;6146538;23;20013;-78
2022/02/17 04:33:05;;;;;;;14.50;0.93;;;9.80;99.90;;;;;;6120884;23;20021;-78
2022/02/17 04:35:39;;;;;;;12.90;1.67;;;9.90;99.90;;;;;;6123372;23;20009;-79
2022/02/17 04:38:04;;;;;;;13.60;1.85;;;9.80;99.90;;;;;;6120959;23;20514;-79
2022/02/17 04:43:24;;;;;;;16.80;1.10;;;9.90;99.90;;;;;;6146324;23;20014;-80
2022/02/17 04:45:49;;;;;;;17.58;1.50;;;9.80;99.90;;;;;;6121083;23;20036;-81
2022/02/17 04:48:15;;;;;;;21.10;1.65;;;9.90;99.90;;;;;;6145454;23;20477;-79
2022/02/17 04:50:41;;;;;;;19.13;1.45;;;9.80;99.90;;;;;;6121081;23;20083;-79
2022/02/17 04:53:07;;;;;;;18.13;1.83;;;9.90;99.90;;;;;;6145096;23;20064;-79
2022/02/17 04:55:40;;;;;;;14.73;1.67;;;9.90;99.90;;;;;;6122585;23;20033;-79
2022/02/17 04:58:06;;;;;;;21.30;2.13;;;9.90;99.90;;;;;;6121384;23;20013;-79
2022/02/17 05:00:32;;;;;;;23.17;2.28;;;9.80;99.90;;;;;;6145276;23;20013;-78
2022/02/17 05:03:23;;;;;;;20.65;2.47;;;9.90;99.90;;;;;;6134711;23;20092;-80
2022/02/17 05:06:02;;;;;;;19.10;1.70;;;9.90;99.90;;;;;;6123934;23;20088;-78
2022/02/17 05:08:30;;;;;;;20.25;2.33;;;9.90;99.90;;;;;;6121423;23;20014;-79
2022/02/17 05:11:01;;;;;;;17.45;1.70;;;9.90;99.90;;;;;;6122349;23;20029;-79
2022/02/17 05:13:26;;;;;;;15.93;1.70;;;9.80;99.90;;;;;;6143535;23;20039;-79
2022/02/17 05:15:52;;;;;;;17.02;1.40;;;9.90;99.90;;;;;;6120708;23;20016;-81
2022/02/17 05:18:19;;;;;;;15.73;1.35;;;9.90;99.90;;;;;;6144906;23;20056;-81
2022/02/17 05:20:45;;;;;;;14.07;1.80;;;9.80;99.90;;;;;;6121083;23;20374;-80
2022/02/17 05:23:20;;;;;;;15.95;1.23;;;9.70;99.90;;;;;;6121381;23;20300;-78
2022/02/17 05:26:20;;;;;;;19.80;2.35;;;9.70;99.90;;;;;;6129377;23;20005;-80
2022/02/17 05:29:12;;;;;;;21.02;2.15;;;9.70;99.90;;;;;;6125314;23;20016;-80
2022/02/17 05:31:57;;;;;;;16.55;1.10;;;9.60;99.90;;;;;;6147099;23;20067;-80
2022/02/17 05:34:41;;;;;;;13.73;1.42;;;9.40;99.90;;;;;;6125339;23;20005;-80
2022/02/17 05:37:14;;;;;;;20.35;1.60;;;9.40;99.90;;;;;;6147324;23;20017;-80
2022/02/17 05:40:04;;;;;;;20.52;2.17;;;9.50;99.90;;;;;;6139105;23;20071;-79
2022/02/17 05:42:30;;;;;;;20.35;2.05;;;9.60;99.90;;;;;;6121955;23;20423;-79
2022/02/17 05:44:56;;;;;;;26.90;2.58;;;9.60;99.90;;;;;;6122802;23;20064;-80
2022/02/17 05:47:21;;;;;;;19.95;1.58;;;9.30;99.90;;;;;;6122551;23;20088;-79
2022/02/17 05:49:47;;;;;;;18.23;1.70;;;8.50;99.90;;;;;;6122268;23;20009;-80
2022/02/17 05:52:13;;;;;;;13.50;1.52;;;8.20;99.90;;;;;;6123127;23;20032;-79
2022/02/17 05:54:38;;;;;;;17.35;1.52;;;8.20;99.90;;;;;;6122534;23;20045;-82
2022/02/17 05:57:04;;;;;;;21.50;1.48;;;8.10;99.90;;;;;;6147275;23;20014;-79
2022/02/17 05:59:30;;;;;;;13.23;0.85;;;8.10;99.90;;;;;;6147579;23;20591;-80
2022/02/17 06:01:55;;;;;;;18.75;1.38;;;8.00;99.90;;;;;;6147438;23;20457;-81
2022/02/17 06:04:21;;;;;;;18.60;1.30;;;7.90;99.90;;;;;;6147931;23;20326;-81
2022/02/17 06:06:47;;;;;;;17.75;1.30;;;7.80;99.90;;;;;;6147211;23;20018;-79
2022/02/17 06:09:12;;;;;;;19.98;2.08;;;7.90;99.90;;;;;;6123111;23;20330;-80
2022/02/17 06:11:38;;;;;;;26.30;1.90;;;7.90;99.90;;;;;;6122261;23;20025;-80
2022/02/17 06:14:08;;;;;;;21.23;2.05;;;7.80;99.90;;;;;;6123218;23;20088;-79
2022/02/17 06:16:33;;;;;;;15.27;0.93;;;7.80;99.90;;;;;;6121949;23;20480;-79
2022/02/17 06:18:59;;;;;;;19.50;1.85;;;7.70;99.90;;;;;;6147478;23;20040;-81
2022/02/17 06:21:25;;;;;;;12.15;1.00;;;7.90;99.90;;;;;;6123111;23;20012;-79
2022/02/17 06:23:50;;;;;;;15.95;1.30;;;7.70;99.90;;;;;;6146746;23;20025;-80
2022/02/17 06:26:18;;;;;;;13.55;1.13;;;7.90;99.90;;;;;;6147591;23;20021;-80
2022/02/17 06:28:44;;;;;;;14.10;0.77;;;7.80;99.90;;;;;;6121822;23;20005;-82
2022/02/17 06:31:11;;;;;;;15.30;0.70;;;8.10;99.90;;;;;;6146165;23;20033;-83
2022/02/17 06:33:36;;;;;;;13.05;1.05;;;8.00;99.90;;;;;;6146964;23;20013;-80
2022/02/17 06:36:02;;;;;;;16.70;1.08;;;8.20;99.90;;;;;;6122792;23;20060;-83
2022/02/17 06:38:29;;;;;;;14.60;0.98;;;8.20;99.90;;;;;;6121558;23;20009;-81
2022/02/17 06:40:55;;;;;;;14.63;1.27;;;8.20;99.90;;;;;;6122417;23;20096;-80
2022/02/17 06:43:20;;;;;;;14.15;1.13;;;8.30;99.90;;;;;;6122858;23;20056;-80
2022/02/17 06:45:46;;;;;;;13.05;1.50;;;8.40;99.90;;;;;;6145996;23;20060;-80
2022/02/17 06:48:12;;;;;;;11.63;0.95;;;8.50;99.90;;;;;;6147010;23;20071;-79
2022/02/17 06:50:38;;;;;;;10.07;0.73;;;8.40;99.90;;;;;;6147169;23;20044;-80
2022/02/17 06:53:06;;;;;;;15.85;0.88;;;8.50;99.90;;;;;;6108651;23;20489;-82
2022/02/17 06:55:31;;;;;;;15.55;0.75;;;8.40;99.90;;;;;;6101097;23;20010;-81
2022/02/17 06:58:01;;;;;;;11.75;0.63;;;8.40;99.90;;;;;;6121823;23;20018;-80
2022/02/17 07:00:27;;;;;;;7.28;0.60;;;8.60;99.90;;;;;;6146790;23;20017;-83
2022/02/17 07:02:54;;;;;;;10.43;0.70;;;8.60;99.90;;;;;;6146217;23;20010;-80
2022/02/17 07:05:25;;;;;;;8.60;0.60;;;8.60;99.90;;;;;;6122006;23;20013;-79
2022/02/17 07:07:51;;;;;;;7.85;0.65;;;8.60;99.90;;;;;;6146792;23;20388;-79
2022/02/17 07:10:54;;;;;;;8.70;1.17;;;8.60;99.90;;;;;;6121863;23;20010;-80
2022/02/17 07:13:04;;;;;;;7.72;0.50;;;8.70;99.90;;;;;;6145866;23;20380;-81
2022/02/17 07:15:30;;;;;;;8.80;0.60;;;8.60;99.90;;;;;;6121280;23;20037;-81
2022/02/17 07:17:56;;;;;;;8.95;0.70;;;8.60;99.90;;;;;;6121885;23;20009;-84
2022/02/17 07:20:22;;;;;;;10.80;0.60;;;8.70;99.90;;;;;;6122410;23;20503;-79
2022/02/17 07:22:48;;;;;;;4.97;0.40;;;8.90;99.90;;;;;;6121834;23;20013;-80
2022/02/17 07:25:13;;;;;;;7.85;0.50;;;8.70;99.90;;;;;;6121691;23;20084;-79
2022/02/17 07:27:40;;;;;;;9.63;0.52;;;8.80;99.90;;;;;;6120949;23;20009;-82
2022/02/17 07:30:07;;;;;;;10.07;1.70;;;8.60;99.90;;;;;;6097804;23;20033;-79
2022/02/17 07:32:32;;;;;;;4.47;0.30;;;8.60;99.90;;;;;;6121531;23;20426;-79
2022/02/17 07:34:58;;;;;;;6.65;0.40;;;8.70;99.90;;;;;;6096724;23;20009;-78
2022/02/17 07:37:23;;;;;;;6.50;0.40;;;8.60;99.90;;;;;;6097370;23;20101;-83
2022/02/17 07:39:49;;;;;;;6.82;0.55;;;8.50;99.90;;;;;;6097036;23;20005;-80
2022/02/17 07:42:16;;;;;;;6.65;0.40;;;8.60;99.90;;;;;;6096828;23;20010;-78
2022/02/17 07:44:42;;;;;;;6.25;0.57;;;8.50;99.90;;;;;;6121327;23;20045;-80
2022/02/17 07:47:07;;;;;;;6.03;0.40;;;8.50;99.90;;;;;;6097788;23;20346;-78
2022/02/17 07:49:33;;;;;;;5.05;0.35;;;8.50;99.90;;;;;;6147342;23;20052;-79
2022/02/17 07:51:59;;;;;;;9.07;0.70;;;8.50;99.90;;;;;;6122197;23;20032;-83
2022/02/17 07:54:25;;;;;;;7.45;0.63;;;8.40;99.90;;;;;;6121652;23;20032;-82
2022/02/17 07:56:51;;;;;;;10.10;0.60;;;8.20;99.90;;;;;;6096980;23;20044;-80
2022/02/17 07:59:17;;;;;;;12.55;0.98;;;8.10;99.90;;;;;;6121608;23;20091;-81
2022/02/17 08:01:42;;;;;;;7.40;0.85;;;8.10;99.90;;;;;;6122131;23;20010;-82
2022/02/17 08:04:09;;;;;;;10.90;0.80;;;8.30;99.90;;;;;;6097133;23;20051;-79
2022/02/17 08:06:35;;;;;;;8.13;0.60;;;8.20;99.90;;;;;;6121823;23;20018;-78
2022/02/17 08:09:00;;;;;;;10.75;0.70;;;8.20;99.90;;;;;;6096857;23;20017;-81
2022/02/17 08:11:27;;;;;;;9.30;0.50;;;8.30;99.90;;;;;;6096712;23;20031;-78
2022/02/17 08:13:55;;;;;;;11.85;0.68;;;8.30;99.90;;;;;;6121250;23;20390;-80
2022/02/17 08:16:23;;;;;;;11.68;0.60;;;8.40;99.90;;;;;;6097005;23;20462;-79
2022/02/17 08:18:49;;;;;;;9.77;0.50;;;8.40;99.90;;;;;;6096634;23;20079;-86
2022/02/17 08:21:14;;;;;;;11.52;0.80;;;8.50;99.90;;;;;;6121629;23;20428;-80
2022/02/17 08:23:40;;;;;;;12.02;0.70;;;8.60;99.90;;;;;;6102472;23;20029;-80
2022/02/17 08:26:06;;;;;;;8.65;0.77;;;8.60;99.90;;;;;;6121183;23;20362;-82
2022/02/17 08:28:32;;;;;;;7.90;0.65;;;8.70;99.90;;;;;;6145536;23;20055;-80
2022/02/17 08:30:57;;;;;;;6.43;0.43;;;8.60;99.90;;;;;;6145742;23;20013;-79
2022/02/17 08:33:23;;;;;;;7.72;0.75;;;8.70;99.90;;;;;;6146144;23;20137;-81
2022/02/17 08:35:48;;;;;;;6.05;0.77;;;8.60;99.90;;;;;;6145350;23;20012;-82
2022/02/17 08:38:14;;;;;;;14.57;0.93;;;8.70;99.90;;;;;;6145215;23;20083;-80
2022/02/17 08:40:40;;;;;;;8.02;0.47;;;8.70;99.90;;;;;;6120359;23;20375;-78
2022/02/17 08:43:08;;;;;;;10.32;0.50;;;8.60;99.90;;;;;;6121261;23;20069;-78
2022/02/17 08:45:43;;;;;;;7.40;0.45;;;8.80;99.90;;;;;;6120302;23;20027;-80
2022/02/17 08:48:10;;;;;;;8.27;0.50;;;8.80;99.90;;;;;;6120130;23;20413;-80
2022/02/17 08:50:37;;;;;;;7.38;0.88;;;8.80;99.90;;;;;;6120806;23;20239;-81
2022/02/17 08:53:02;;;;;;;7.32;0.60;;;8.70;99.90;;;;;;6121096;23;20017;-80
2022/02/17 08:55:28;;;;;;;8.50;0.60;;;8.60;99.90;;;;;;6144995;23;20005;-82
2022/02/17 08:57:54;;;;;;;10.88;0.47;;;8.70;99.90;;;;;;6120508;23;20100;-81
2022/02/17 09:00:21;;;;;;;10.45;0.50;;;8.60;99.90;;;;;;6122096;23;20338;-80
2022/02/17 09:02:46;;;;;;;6.53;0.40;;;8.70;99.90;;;;;;6147688;23;20027;-80
2022/02/17 09:05:12;;;;;;;8.95;0.75;;;8.60;99.90;;;;;;6123195;23;20017;-81
2022/02/17 09:07:37;;;;;;;10.68;0.50;;;8.60;99.90;;;;;;6147397;23;20005;-79
2022/02/17 09:10:04;;;;;;;9.50;0.63;;;8.60;99.90;;;;;;6122437;23;20383;-79
2022/02/17 09:12:31;;;;;;;7.80;0.60;;;8.70;99.90;;;;;;6098417;23;20032;-79
2022/02/17 09:14:56;;;;;;;8.70;0.50;;;8.90;99.90;;;;;;6147362;23;20009;-78
2022/02/17 09:17:22;;;;;;;8.10;0.40;;;8.90;99.90;;;;;;6149266;23;20071;-80
2022/02/17 09:19:48;;;;;;;7.47;0.40;;;8.90;99.90;;;;;;6147559;23;20020;-78
2022/02/17 09:22:14;;;;;;;8.73;0.57;;;9.00;99.90;;;;;;6122453;23;20020;-79
2022/02/17 09:24:39;;;;;;;4.47;0.30;;;8.80;99.90;;;;;;6122084;23;20025;-82
2022/02/17 09:27:06;;;;;;;6.03;0.55;;;8.80;99.90;;;;;;6122595;23;20029;-79
2022/02/17 09:29:33;;;;;;;7.63;0.40;;;8.80;99.90;;;;;;6146752;23;20012;-79
2022/02/17 09:31:59;;;;;;;5.32;0.95;;;8.80;99.90;;;;;;6122270;23;20017;-80
2022/02/17 09:34:26;;;;;;;5.70;0.50;;;8.80;99.90;;;;;;6123150;23;20005;-78
2022/02/17 09:36:51;;;;;;;7.68;0.40;;;8.80;99.90;;;;;;6121978;23;20016;-79
2022/02/17 09:39:17;;;;;;;13.38;1.05;;;8.80;99.90;;;;;;6148302;23;20005;-79
2022/02/17 09:41:43;;;;;;;6.68;0.40;;;8.70;99.90;;;;;;6122789;23;20431;-82
2022/02/17 09:44:10;;;;;;;7.60;0.40;;;9.00;99.90;;;;;;6122781;23;20016;-79
2022/02/17 09:46:45;;;;;;;10.25;0.70;;;9.20;99.90;;;;;;6122865;23;20174;-80
2022/02/17 09:49:15;;;;;;;7.97;0.82;;;9.30;99.90;;;;;;6123148;23;20045;-82
2022/02/17 09:51:42;;;;;;;;;;;9.50;99.90;;;;;;6122537;23;20021;-79
2022/02/17 09:54:13;;;;;;;6.00;0.40;;;9.10;99.90;;;;;;6121992;23;19912;-83
2022/02/17 09:56:39;;;;;;;5.53;0.50;;;9.10;99.90;;;;;;6123352;23;20699;-80
2022/02/17 09:59:05;;;;;;;5.72;0.40;;;9.20;99.90;;;;;;6147212;23;20068;-83
2022/02/17 10:01:31;;;;;;;7.47;0.43;;;9.20;99.90;;;;;;6146984;23;20050;-78
2022/02/17 10:04:21;;;;;;;5.38;0.32;;;9.20;99.90;;;;;;6122978;23;20040;-82
2022/02/17 10:06:55;;;;;;;7.70;0.30;;;9.10;99.90;;;;;;6122776;23;20021;-80
2022/02/17 10:09:35;;;;;;;9.10;0.40;;;9.20;99.90;;;;;;6147126;23;20330;-81
2022/02/17 10:12:01;;;;;;;3.92;0.30;;;9.30;99.90;;;;;;6147223;23;20017;-81
2022/02/17 10:14:27;;;;;;;7.07;0.80;;;9.10;99.90;;;;;;6098676;23;20124;-80
2022/02/17 10:17:09;;;;;;;5.90;0.30;;;9.30;99.90;;;;;;6123204;23;20104;-81
2022/02/17 10:19:49;;;;;;;6.20;0.73;;;9.40;99.90;;;;;;6122059;23;20049;-84
2022/02/17 10:22:20;;;;;;;6.38;0.55;;;9.50;99.90;;;;;;6121872;23;20084;-82
2022/02/17 10:24:51;;;;;;;5.88;0.30;;;9.40;99.90;;;;;;6146365;23;20595;-79
2022/02/17 10:27:25;;;;;;;8.95;0.30;;;9.70;99.90;;;;;;6097678;23;20009;-79
2022/02/17 10:30:09;;;;;;;3.58;0.30;;;9.70;99.90;;;;;;6146399;23;20473;-79
2022/02/17 10:32:37;;;;;;;6.43;0.35;;;9.90;99.90;;;;;;6145766;23;20017;-78
2022/02/17 10:35:12;;;;;;;5.78;0.30;;;9.90;99.90;;;;;;6122749;23;20339;-78
2022/02/17 10:37:44;;;;;;;6.28;0.40;;;10.00;99.90;;;;;;6146899;23;20013;-79
2022/02/17 10:40:28;;;;;;;8.88;0.95;;;9.90;99.90;;;;;;6146479;23;20013;-79
2022/02/17 10:43:12;;;;;;;7.05;0.50;;;9.90;99.90;;;;;;6148305;23;20014;-78
2022/02/17 10:45:44;;;;;;;8.77;0.50;;;9.90;99.90;;;;;;6146539;23;20067;-80
2022/02/17 10:48:31;;;;;;;6.57;1.13;;;10.00;99.90;;;;;;6148357;23;20071;-79
2022/02/17 10:51:17;;;;;;;5.90;0.40;;;9.70;99.90;;;;;;6146371;23;20479;-80
2022/02/17 10:54:01;;;;;;;6.82;0.40;;;9.80;99.90;;;;;;6121568;23;20018;-77
2022/02/17 10:56:30;;;;;;;12.15;1.00;;;9.60;99.90;;;;;;6145935;23;20084;-77
2022/02/17 10:59:01;;;;;;;3.53;0.30;;;9.70;99.90;;;;;;6146272;23;20009;-77
2022/02/17 11:01:28;;;;;;;8.70;0.50;;;9.70;99.90;;;;;;6121645;23;20037;-78
2022/02/17 11:03:54;;;;;;;5.07;0.38;;;9.90;99.90;;;;;;6146193;23;20092;-78
2022/02/17 11:06:21;;;;;;;8.73;0.35;;;10.00;99.90;;;;;;6145716;23;20006;-78
2022/02/17 11:08:48;;;;;;;9.05;0.30;;;10.10;99.90;;;;;;6145847;23;20037;-77
2022/02/17 11:11:14;;;;;;;4.00;0.30;;;10.00;99.90;;;;;;6145757;23;20620;-78
2022/02/17 11:13:46;;;;;;;7.75;0.40;;;10.10;99.90;;;;;;6145648;23;20037;-80
2022/02/17 11:16:15;;;;;;;6.45;0.47;;;9.90;99.90;;;;;;6146346;23;20073;-77
2022/02/17 11:18:41;;;;;;;6.03;0.30;;;10.10;99.90;;;;;;6145676;23;20009;-79
2022/02/17 11:21:08;;;;;;;6.18;0.50;;;10.10;99.90;;;;;;6145497;23;20076;-78
2022/02/17 11:23:36;;;;;;;5.80;0.77;;;9.90;99.90;;;;;;6145206;23;20457;-78
2022/02/17 11:26:17;;;;;;;9.93;0.80;;;10.00;99.90;;;;;;6121476;23;20121;-78
2022/02/17 11:28:43;;;;;;;;;;;9.90;99.90;;;;;;6145714;23;20382;-79
2022/02/17 11:31:10;;;;;;;4.30;0.30;;;9.90;99.90;;;;;;6121414;23;19916;-78
2022/02/17 11:33:39;;;;;;;7.38;0.40;;;9.90;99.90;;;;;;6145141;23;20005;-77
2022/02/17 11:36:08;;;;;;;6.03;0.30;;;10.00;99.90;;;;;;6121278;23;20493;-76
2022/02/17 11:38:40;;;;;;;6.72;0.40;;;10.20;99.90;;;;;;6145314;23;20071;-76
2022/02/17 11:41:12;;;;;;;2.65;0.20;;;9.80;99.90;;;;;;6147503;23;20005;-79
2022/02/17 11:43:40;;;;;;;8.77;0.50;;;10.10;99.90;;;;;;6147746;23;20295;-77
2022/02/17 11:46:06;;;;;;;5.63;0.22;;;10.10;99.90;;;;;;6146498;23;20192;-77
2022/02/17 11:48:46;;;;;;;3.78;0.20;;;10.40;99.90;;;;;;6120211;23;20021;-76
2022/02/17 11:51:23;;;;;;;5.82;0.50;;;10.50;99.90;;;;;;6145106;23;20021;-78
2022/02/17 11:54:14;;;;;;;7.47;0.35;;;10.50;99.90;;;;;;6096023;23;20020;-78
2022/02/17 11:56:44;;;;;;;7.45;0.50;;;10.40;99.90;;;;;;6120703;23;20021;-79
2022/02/17 11:59:23;;;;;;;;;;;10.20;99.90;;;;;;6120872;23;20001;-79
2022/02/17 12:01:50;;;;;;;6.70;0.47;;;10.50;99.90;;;;;;6144675;23;19905;-77
2022/02/17 12:04:26;;;;;;;5.22;0.30;;;10.60;99.90;;;;;;6144515;23;20049;-78
2022/02/17 12:06:59;;;;;;;6.63;0.40;;;10.80;99.90;;;;;;6145303;23;20037;-77
2022/02/17 12:09:32;;;;;;;9.65;0.50;;;10.90;99.90;;;;;;6120745;23;20350;-78
2022/02/17 12:12:24;;;;;;;6.97;0.73;;;10.70;99.90;;;;;;6121209;23;20407;-77
2022/02/17 12:14:51;;;;;;;7.05;0.30;;;10.90;99.90;;;;;;6120053;23;20020;-76
2022/02/17 12:17:33;;;;;;;4.10;0.30;;;10.70;99.90;;;;;;6144404;23;20017;-77
2022/02/17 12:20:22;;;;;;;8.38;0.40;;;10.80;99.90;;;;;;6145808;23;20057;-77
2022/02/17 12:22:51;;;;;;;5.85;0.30;;;10.50;99.90;;;;;;6120166;23;20446;-77
2022/02/17 12:25:28;;;;;;;6.00;0.38;;;10.40;99.90;;;;;;6147057;23;20013;-75
2022/02/17 12:27:59;;;;;;;6.13;0.45;;;10.60;99.90;;;;;;6096081;23;20021;-78
2022/02/17 12:30:33;;;;;;;8.02;0.52;;;10.70;99.90;;;;;;6120479;23;20430;-77
2022/02/17 12:33:04;;;;;;;4.68;0.30;;;10.60;99.90;;;;;;6119867;23;20104;-78
2022/02/17 12:35:30;;;;;;;4.18;0.32;;;10.60;99.90;;;;;;6119723;23;20467;-76
2022/02/17 12:38:32;;;;;;;5.32;0.30;;;10.40;99.90;;;;;;6096523;23;20060;-78
2022/02/17 12:40:59;;;;;;;5.47;0.32;;;10.60;99.90;;;;;;6076739;23;20081;-77
2022/02/17 12:43:27;;;;;;;7.30;1.05;;;10.20;99.90;;;;;;6096571;23;20031;-76
2022/02/17 12:45:55;;;;;;;6.40;0.30;;;10.10;99.90;;;;;;6119764;23;20084;-77
2022/02/17 12:48:21;;;;;;;5.00;0.40;;;9.90;99.90;;;;;;6120283;23;20016;-79
2022/02/17 12:50:47;;;;;;;4.18;0.30;;;9.70;99.90;;;;;;6120176;23;20073;-77
2022/02/17 12:53:12;;;;;;;4.57;0.40;;;9.70;99.90;;;;;;6120338;23;20005;-76
2022/02/17 12:55:51;;;;;;;6.40;0.47;;;10.10;99.90;;;;;;6095671;23;20010;-76
2022/02/17 12:58:37;;;;;;;5.18;0.30;;;10.40;99.90;;;;;;6114248;23;20415;-77
2022/02/17 13:01:04;;;;;;;4.10;0.30;;;10.00;99.90;;;;;;6119763;23;20490;-77